createdAt,value
2022-10-24T00:00:35.150Z,92.46
2022-10-24T00:02:36.725Z,92.72
2022-10-24T00:04:37.881Z,92.68
2022-10-24T00:06:39.478Z,92.34
2022-10-24T00:08:41.099Z,92.23
2022-10-24T00:10:42.765Z,92.41
2022-10-24T00:12:44.160Z,92.6
2022-10-24T00:14:44.951Z,93
2022-10-24T00:16:46.763Z,92.83
2022-10-24T00:18:48.286Z,92.59
2022-10-24T00:20:49.178Z,92.49
2022-10-24T00:22:50.536Z,92.66
2022-10-24T00:24:51.544Z,92.07
2022-10-24T00:28:54.498Z,91.79
2022-10-24T00:30:56.231Z,91.14
2022-10-24T00:32:57.684Z,90.39
2022-10-24T00:34:58.718Z,90.46
2022-10-24T00:39:01.218Z,92.07
2022-10-24T00:41:02.764Z,91.63
2022-10-24T00:45:05.406Z,91.26
2022-10-24T00:47:07.051Z,91.27
2022-10-24T00:49:08.939Z,91.73
2022-10-24T00:51:10.690Z,91.93
2022-10-24T00:53:11.983Z,92.21
2022-10-24T00:55:13.114Z,92.13
2022-10-24T00:57:14.215Z,91.85
2022-10-24T00:59:15.623Z,90.39
2022-10-24T01:01:16.624Z,90.31
2022-10-24T01:03:18.268Z,90.08
2022-10-24T01:05:19.913Z,90.06
2022-10-24T01:07:21.193Z,89.88
2022-10-24T01:09:22.963Z,89.91
2022-10-24T01:11:23.948Z,89.89
2022-10-24T01:13:25.537Z,90.49
2022-10-24T01:15:27.357Z,90.68
2022-10-24T01:17:29.125Z,91.06
2022-10-24T01:19:30.065Z,91.96
2022-10-24T01:21:31.128Z,92.13
2022-10-24T01:23:32.664Z,93.06
2022-10-24T01:25:34.216Z,94.13
2022-10-24T01:27:35.175Z,94.78
2022-10-24T01:29:36.660Z,95.11
2022-10-24T01:31:37.800Z,95.42
2022-10-24T01:33:39.578Z,95.39
2022-10-24T01:37:42.799Z,93.27
2022-10-24T01:39:43.719Z,93.54
2022-10-24T01:41:44.782Z,94.23
2022-10-24T01:43:45.922Z,94.5
2022-10-24T01:45:47.178Z,94.35
2022-10-24T01:47:49.015Z,94.97
2022-10-24T01:49:50.874Z,95.38
2022-10-24T01:51:51.954Z,95.53
2022-10-24T01:53:53.388Z,95.57
2022-10-24T01:55:55.219Z,95.53
2022-10-24T01:57:56.327Z,95.62
2022-10-24T01:59:57.581Z,95.97
2022-10-24T02:01:58.627Z,96.1
2022-10-24T02:03:59.610Z,96.49
2022-10-24T02:06:00.684Z,96.38
2022-10-24T02:10:03.201Z,95.2
2022-10-24T02:12:04.271Z,94.76
2022-10-24T02:14:05.203Z,94.65
2022-10-24T02:16:07.037Z,94.7
2022-10-24T02:20:09.491Z,94.3
2022-10-24T02:22:10.573Z,94.29
2022-10-24T02:24:12.330Z,93.81
2022-10-24T02:26:13.308Z,93.73
2022-10-24T02:28:14.939Z,93.73
2022-10-24T02:30:16.658Z,93.55
2022-10-24T02:32:17.603Z,93.43
2022-10-24T02:34:19.249Z,93.09
2022-10-24T02:36:21.038Z,93.09
2022-10-24T02:38:22.227Z,94.15
2022-10-24T02:40:23.497Z,93.15
2022-10-24T02:42:24.838Z,92.99
2022-10-24T02:44:26.074Z,92.75
2022-10-24T02:46:27.201Z,89.82
2022-10-24T02:48:28.755Z,91.86
2022-10-24T02:50:30.451Z,92.36
2022-10-24T02:52:31.991Z,93.95
2022-10-24T02:54:33.673Z,93.92
2022-10-24T02:56:34.610Z,93.52
2022-10-24T02:58:36.388Z,93.35
2022-10-24T03:00:38.146Z,93.51
2022-10-24T03:02:39.546Z,92.52
2022-10-24T03:04:40.830Z,92.02
2022-10-24T03:08:44.027Z,92.99
2022-10-24T03:10:45.216Z,92.09
2022-10-24T03:12:47.073Z,92.46
2022-10-24T03:14:48.348Z,92.19
2022-10-24T03:18:51.125Z,91.96
2022-10-24T03:20:52.925Z,91.92
2022-10-24T03:22:54.584Z,92.27
2022-10-24T03:24:55.918Z,91.73
2022-10-24T03:26:56.884Z,91.42
2022-10-24T03:28:58.525Z,91.3
2022-10-24T03:30:59.627Z,90.3
2022-10-24T03:33:01.241Z,90.35
2022-10-24T03:35:02.761Z,90.72
2022-10-24T03:37:03.724Z,90.16
2022-10-24T03:39:04.862Z,90.13
2022-10-24T03:41:06.208Z,90.7
2022-10-24T03:43:07.989Z,91.07
2022-10-24T03:45:09.639Z,91.73
2022-10-24T03:47:11.425Z,92.32
2022-10-24T03:49:12.683Z,92.52
2022-10-24T03:51:14.065Z,92.05
2022-10-24T03:53:15.557Z,92.05
2022-10-24T03:55:17.018Z,92.17
2022-10-24T03:57:18.926Z,91.99
2022-10-24T04:01:21.239Z,90.58
2022-10-24T04:03:23.082Z,88.24
2022-10-24T04:05:23.982Z,87.71
2022-10-24T04:07:25.450Z,88.5
2022-10-24T04:09:26.514Z,88.66
2022-10-24T04:11:28.412Z,89.11
2022-10-24T04:13:30.017Z,89.13
2022-10-24T04:15:31.018Z,88.93
2022-10-24T04:17:32.809Z,88.92
2022-10-24T04:19:34.320Z,89.18
2022-10-24T04:21:35.402Z,87.5
2022-10-24T04:23:36.943Z,88.15
2022-10-24T04:25:38.673Z,88.36
2022-10-24T04:27:40.463Z,87.18
2022-10-24T04:29:42.169Z,84.67
2022-10-24T04:31:43.087Z,82.69
2022-10-24T04:33:44.933Z,83.19
2022-10-24T04:35:46.244Z,82.66
2022-10-24T04:37:47.985Z,80.92
2022-10-24T04:39:49.022Z,82.07
2022-10-24T04:43:52.343Z,80.3
2022-10-24T04:45:53.524Z,82.64
2022-10-24T04:47:54.455Z,83.23
2022-10-24T04:49:55.919Z,82.89
2022-10-24T04:52:06.188Z,83.18
2022-10-24T04:53:59.050Z,83.11
2022-10-24T04:56:00.036Z,83.39
2022-10-24T04:58:01.156Z,83.19
2022-10-24T05:00:02.215Z,84.35
2022-10-24T05:02:03.713Z,85.58
2022-10-24T05:04:04.808Z,86.67
2022-10-24T05:06:06.440Z,86.52
2022-10-24T05:08:07.598Z,84.38
2022-10-24T05:12:10.820Z,87.6
2022-10-24T05:16:13.930Z,82.49
2022-10-24T05:18:14.846Z,83.03
2022-10-24T05:20:16.617Z,82.21
2022-10-24T05:22:17.986Z,83.32
2022-10-24T05:26:21.295Z,83.39
2022-10-24T05:28:22.937Z,83.21
2022-10-24T05:30:23.825Z,82.09
2022-10-24T05:32:24.926Z,82.66
2022-10-24T05:34:26.730Z,83.6
2022-10-24T05:36:27.753Z,83.64
2022-10-24T05:38:28.695Z,83.84
2022-10-24T05:40:29.990Z,84.13
2022-10-24T05:42:31.409Z,83.87
2022-10-24T05:44:33.213Z,83.64
2022-10-24T05:46:35.109Z,82.99
2022-10-24T05:48:36.376Z,83.17
2022-10-24T05:50:38.185Z,83.39
2022-10-24T05:52:42.144Z,83.83
2022-10-24T05:54:48.699Z,84.52
2022-10-24T05:58:44.307Z,85.1
2022-10-24T06:00:47.888Z,84.23
2022-10-24T06:03:30.615Z,81.27
2022-10-24T06:05:31.688Z,81.56
2022-10-24T06:09:33.674Z,82.91
2022-10-24T06:11:34.711Z,83.44
2022-10-24T06:15:36.813Z,87.56
2022-10-24T06:17:38.585Z,89.4
2022-10-24T06:19:40.137Z,89.62
2022-10-24T06:21:41.734Z,90.71
2022-10-24T06:23:43.330Z,89.39
2022-10-24T06:25:44.550Z,89.66
2022-10-24T06:29:47.909Z,86.06
2022-10-24T06:31:49.091Z,86.24
2022-10-24T06:33:50.151Z,88.16
2022-10-24T06:35:51.714Z,89.79
2022-10-24T06:37:53.475Z,90.43
2022-10-24T06:39:54.305Z,90.3
2022-10-24T06:41:55.293Z,89.51
2022-10-24T06:43:56.417Z,90.61
2022-10-24T06:45:58.156Z,90.34
2022-10-24T06:47:59.578Z,91.03
2022-10-24T06:50:00.478Z,91.19
2022-10-24T06:52:01.566Z,91.81
2022-10-24T06:54:03.339Z,92.39
2022-10-24T06:56:05.088Z,92.79
2022-10-24T06:58:06.337Z,92.58
2022-10-24T07:00:07.921Z,92.85
2022-10-24T07:02:09.132Z,92.99
2022-10-24T07:04:10.722Z,93.23
2022-10-24T07:06:11.969Z,92.78
2022-10-24T07:08:13.245Z,91.56
2022-10-24T07:10:14.568Z,91.95
2022-10-24T07:12:15.682Z,91.92
2022-10-24T07:14:17.282Z,92.02
2022-10-24T07:16:18.493Z,92.37
2022-10-24T07:18:19.711Z,92.18
2022-10-24T07:20:21.473Z,92.55
2022-10-24T07:22:22.424Z,93.21
2022-10-24T07:24:23.514Z,93.18
2022-10-24T07:26:24.445Z,93.52
2022-10-24T07:28:25.490Z,93.7
2022-10-24T07:30:26.456Z,93.33
2022-10-24T07:32:27.664Z,93.13
2022-10-24T07:34:29.348Z,93.16
2022-10-24T07:36:30.496Z,93.35
2022-10-24T07:38:32.322Z,93.1
2022-10-24T07:40:33.803Z,91.98
2022-10-24T07:42:35.018Z,92.28
2022-10-24T07:46:37.977Z,90.92
2022-10-24T07:48:39.733Z,91.47
2022-10-24T07:50:41.631Z,91.77
2022-10-24T07:52:43.212Z,91.9
2022-10-24T07:54:44.082Z,91.72
2022-10-24T07:56:45.698Z,91.95
2022-10-24T07:58:46.767Z,91.68
2022-10-24T08:00:47.754Z,91.33
2022-10-24T08:04:50.249Z,90.39
2022-10-24T08:06:51.526Z,90.43
2022-10-24T08:08:52.507Z,90.24
2022-10-24T08:10:54.294Z,90.21
2022-10-24T08:12:56.101Z,90.55
2022-10-24T08:14:57.556Z,90.96
2022-10-24T08:16:59.340Z,91.6
2022-10-24T08:19:01.171Z,92.19
2022-10-24T08:21:02.687Z,92.76
2022-10-24T08:23:04.421Z,93.13
2022-10-24T08:25:05.550Z,92.77
2022-10-24T08:29:08.328Z,93.3
2022-10-24T08:31:09.252Z,92.01
2022-10-24T08:33:10.238Z,92.15
2022-10-24T08:37:13.091Z,91.88
2022-10-24T08:39:14.021Z,93.29
2022-10-24T08:41:15.487Z,93.6
2022-10-24T08:43:17.160Z,93.91
2022-10-24T08:45:18.499Z,93.97
2022-10-24T08:47:20.207Z,94.05
2022-10-24T08:49:21.901Z,93.39
2022-10-24T08:51:23.017Z,93.69
2022-10-24T08:53:24.328Z,93.42
2022-10-24T08:55:44.195Z,91.96
2022-10-24T08:57:27.500Z,91.38
2022-10-24T08:59:28.780Z,90.98
2022-10-24T09:01:30.099Z,91.22
2022-10-24T09:03:51.070Z,91.33
2022-10-24T09:05:31.993Z,91.59
2022-10-24T09:07:33.296Z,91.52
2022-10-24T09:11:36.538Z,90.71
2022-10-24T09:13:37.565Z,90.56
2022-10-24T09:15:38.820Z,90.44
2022-10-24T09:17:39.712Z,89.75
2022-10-24T09:19:41.509Z,89.43
2022-10-24T09:21:42.898Z,89.97
2022-10-24T09:23:44.349Z,89.93
2022-10-24T09:25:45.632Z,89.42
2022-10-24T09:27:47.033Z,88.61
2022-10-24T09:29:48.498Z,88.24
2022-10-24T09:31:49.714Z,87.83
2022-10-24T09:33:50.673Z,89.05
2022-10-24T09:35:51.626Z,88.61
2022-10-24T09:37:53.763Z,87.62
2022-10-24T09:39:54.914Z,87.53
2022-10-24T09:41:56.029Z,87.38
2022-10-24T09:43:57.146Z,86.74
2022-10-24T09:45:58.036Z,86.6
2022-10-24T09:47:59.870Z,86.73
2022-10-24T09:50:00.911Z,87.21
2022-10-24T09:54:02.858Z,87.2
2022-10-24T09:56:04.203Z,87.19
2022-10-24T09:58:05.916Z,87.1
2022-10-24T10:00:07.064Z,86.64
2022-10-24T10:02:08.178Z,87.03
2022-10-24T10:04:10.693Z,87.32
2022-10-24T10:06:11.063Z,87.62
2022-10-24T10:08:12.429Z,86.62
2022-10-24T10:12:15.602Z,87.08
2022-10-24T10:14:16.678Z,86.93
2022-10-24T10:16:18.238Z,87.01
2022-10-24T10:18:19.525Z,86.34
2022-10-24T10:20:20.805Z,86.98
2022-10-24T10:22:22.056Z,86.53
2022-10-24T10:26:25.014Z,87.19
2022-10-24T10:28:26.460Z,87.05
2022-10-24T10:30:27.679Z,87.14
2022-10-24T10:32:29.008Z,86.89
2022-10-24T10:36:31.407Z,87.36
2022-10-24T10:38:32.507Z,87.61
2022-10-24T10:42:35.182Z,86.93
2022-10-24T10:44:36.260Z,86.92
2022-10-24T10:46:38.096Z,86.92
2022-10-24T10:48:39.940Z,85.96
2022-10-24T10:52:43.372Z,86.07
2022-10-24T10:54:44.639Z,86.24
2022-10-24T10:56:45.612Z,86.66
2022-10-24T10:58:47.409Z,86.44
2022-10-24T11:00:48.702Z,86.33
2022-10-24T11:02:50.809Z,86.04
2022-10-24T11:04:51.254Z,85.24
2022-10-24T11:06:52.876Z,85.48
2022-10-24T11:08:54.541Z,85.5
2022-10-24T11:10:55.374Z,85.21
2022-10-24T11:12:56.889Z,85.86
2022-10-24T11:14:57.634Z,85.06
2022-10-24T11:16:59.391Z,84.76
2022-10-24T11:19:00.502Z,85.05
2022-10-24T11:21:01.784Z,84.93
2022-10-24T11:25:04.162Z,84.41
2022-10-24T11:27:05.207Z,84.21
2022-10-24T11:29:06.492Z,84.44
2022-10-24T11:31:07.781Z,85.47
2022-10-24T11:35:10.246Z,84.19
2022-10-24T11:37:11.996Z,84.28
2022-10-24T11:39:13.417Z,84.61
2022-10-24T11:41:14.346Z,84.78
2022-10-24T11:43:15.804Z,85.51
2022-10-24T11:45:17.231Z,84.57
2022-10-24T11:47:19.022Z,84.64
2022-10-24T11:49:20.128Z,85.23
2022-10-24T11:51:21.339Z,84.95
2022-10-24T11:53:22.191Z,83.48
2022-10-24T11:55:24.011Z,84.08
2022-10-24T11:57:25.202Z,84.43
2022-10-24T11:59:26.185Z,84.66
2022-10-24T12:01:27.276Z,84.39
2022-10-24T12:03:28.709Z,84.66
2022-10-24T12:05:30.255Z,84.14
2022-10-24T12:07:31.637Z,84.42
2022-10-24T12:09:34.306Z,83.56
2022-10-24T12:11:34.295Z,83.05
2022-10-24T12:13:35.303Z,83.39
2022-10-24T12:15:38.970Z,84.17
2022-10-24T12:17:38.901Z,84.06
2022-10-24T12:19:40.121Z,84.75
2022-10-24T12:21:41.065Z,86.07
2022-10-24T12:23:42.281Z,86.06
2022-10-24T12:25:45.693Z,86.58
2022-10-24T12:27:45.291Z,87.28
2022-10-24T12:29:46.671Z,87.09
2022-10-24T12:31:48.422Z,87.01
2022-10-24T12:33:50.221Z,85.55
2022-10-24T12:35:51.821Z,86.25
2022-10-24T12:37:53.097Z,86.33
2022-10-24T12:39:56.211Z,87.13
2022-10-24T12:41:56.174Z,87.69
2022-10-24T12:43:57.589Z,86.91
2022-10-24T12:45:58.799Z,87.99
2022-10-24T12:48:00.386Z,87.71
2022-10-24T12:48:44.122Z,88.24
2022-10-24T12:50:45.542Z,86.61
2022-10-24T12:52:47.136Z,87.25
2022-10-24T12:54:48.011Z,87.28
2022-10-24T12:56:49.227Z,87.35
2022-10-24T13:00:52.472Z,87.58
2022-10-24T13:02:53.949Z,87.81
2022-10-24T13:04:54.784Z,87.89
2022-10-24T13:06:56.538Z,87.87
2022-10-24T13:10:59.881Z,87.29
2022-10-24T13:13:01.758Z,87.48
2022-10-24T13:15:02.997Z,87.56
2022-10-24T13:17:04.563Z,87.74
2022-10-24T13:19:05.746Z,88.16
2022-10-24T13:21:07.478Z,87.83
2022-10-24T13:23:07.821Z,87.41
2022-10-24T13:25:13.491Z,87.29
2022-10-24T13:27:12.487Z,87.78
2022-10-24T13:29:12.497Z,87.24
2022-10-24T13:31:14.330Z,86.75
2022-10-24T13:33:16.120Z,87.12
2022-10-24T13:35:17.691Z,86.89
2022-10-24T13:37:19.367Z,86.49
2022-10-24T13:39:20.577Z,86.54
2022-10-24T13:41:22.162Z,85.51
2022-10-24T13:43:23.681Z,86.3
2022-10-24T13:45:24.776Z,86.27
2022-10-24T13:47:26.098Z,85.21
2022-10-24T13:51:29.027Z,85.32
2022-10-24T13:53:30.951Z,85.45
2022-10-24T13:55:30.982Z,85.6
2022-10-24T13:57:31.812Z,85.47
2022-10-24T13:59:33.003Z,85.55
2022-10-24T14:01:34.564Z,85.1
2022-10-24T14:03:36.967Z,85.22
2022-10-24T14:05:37.947Z,84.44
2022-10-24T14:07:39.543Z,84.51
2022-10-24T14:09:40.443Z,84.37
2022-10-24T14:11:41.582Z,84.22
2022-10-24T14:13:42.507Z,84.92
2022-10-24T14:15:43.849Z,84.84
2022-10-24T14:17:45.439Z,84.38
2022-10-24T14:19:47.699Z,84.77
2022-10-24T14:21:48.369Z,84.53
2022-10-24T14:25:51.089Z,84.67
2022-10-24T14:27:52.231Z,85.33
2022-10-24T14:29:53.142Z,85.26
2022-10-24T14:31:54.266Z,84.95
2022-10-24T14:35:57.987Z,84.64
2022-10-24T14:37:58.595Z,84.91
2022-10-24T14:42:01.361Z,84.53
2022-10-24T14:44:02.964Z,84.81
2022-10-24T14:46:04.724Z,84.6
2022-10-24T14:48:06.205Z,84.99
2022-10-24T14:50:07.029Z,84.63
2022-10-24T14:54:09.104Z,85.23
2022-10-24T14:56:10.336Z,85.26
2022-10-24T14:58:12.010Z,84.87
2022-10-24T15:00:13.347Z,85.15
2022-10-24T15:02:14.666Z,84.76
2022-10-24T15:04:15.705Z,84.75
2022-10-24T15:06:17.482Z,85.28
2022-10-24T15:08:22.666Z,85.23
2022-10-24T15:10:20.143Z,85.02
2022-10-24T15:12:21.703Z,84.66
2022-10-24T15:14:23.502Z,85.18
2022-10-24T15:16:24.463Z,84.8
2022-10-24T15:18:25.730Z,84.44
2022-10-24T15:20:27.235Z,84.18
2022-10-24T15:22:28.261Z,84.42
2022-10-24T15:24:29.970Z,83.95
2022-10-24T15:26:31.118Z,82.82
2022-10-24T15:28:32.569Z,82.45
2022-10-24T15:30:33.703Z,82.15
2022-10-24T15:32:35.255Z,81.69
2022-10-24T15:34:36.124Z,81.29
2022-10-24T15:36:37.133Z,81.58
2022-10-24T15:38:39.042Z,81.93
2022-10-24T15:40:39.464Z,81.85
2022-10-24T15:42:40.644Z,82.07
2022-10-24T15:44:41.947Z,82.45
2022-10-24T15:46:43.403Z,82.48
2022-10-24T15:48:44.799Z,82.47
2022-10-24T15:50:45.926Z,82.98
2022-10-24T15:52:47.609Z,83.28
2022-10-24T15:54:48.852Z,83.38
2022-10-24T15:56:50.600Z,83.62
2022-10-24T15:58:52.102Z,83.84
2022-10-24T16:00:53.346Z,84.02
2022-10-24T16:02:54.802Z,84.4
2022-10-24T16:06:57.280Z,84.55
2022-10-24T16:08:58.557Z,84.61
2022-10-24T16:10:59.567Z,84.48
2022-10-24T16:13:00.544Z,84.33
2022-10-24T16:15:01.939Z,84.23
2022-10-24T16:17:02.926Z,84.75
2022-10-24T16:19:03.974Z,84.88
2022-10-24T16:23:06.795Z,85.3
2022-10-24T16:25:08.554Z,85.49
2022-10-24T16:27:09.934Z,85.53
2022-10-24T16:29:11.298Z,85.62
2022-10-24T16:33:13.921Z,85.4
2022-10-24T16:35:15.668Z,85.42
2022-10-24T16:37:17.256Z,85.25
2022-10-24T16:39:19.071Z,85.32
2022-10-24T16:41:20.241Z,85.06
2022-10-24T16:43:22.042Z,85.21
2022-10-24T16:45:23.336Z,84.93
2022-10-24T16:47:24.709Z,85.12
2022-10-24T16:49:25.613Z,85.11
2022-10-24T16:51:26.673Z,85.49
2022-10-24T16:53:28.112Z,85.4
2022-10-24T16:55:29.174Z,85.36
2022-10-24T16:57:30.582Z,84.96
2022-10-24T16:59:31.605Z,84.91
2022-10-24T17:01:33.222Z,84.7
2022-10-24T17:03:34.194Z,84.75
2022-10-24T17:05:35.232Z,83.98
2022-10-24T17:07:36.692Z,83.94
2022-10-24T17:09:37.795Z,84.07
2022-10-24T17:11:45.133Z,84.09
2022-10-24T17:15:42.406Z,84.02
2022-10-24T17:17:43.487Z,84.24
2022-10-24T17:19:44.775Z,84.54
2022-10-24T17:21:46.507Z,84.74
2022-10-24T17:23:48.206Z,84.67
2022-10-24T17:25:49.961Z,84.73
2022-10-24T17:27:51.384Z,84.82
2022-10-24T17:29:53.080Z,85
2022-10-24T17:31:54.369Z,85.18
2022-10-24T17:33:56.118Z,85.44
2022-10-24T17:35:57.182Z,85.25
2022-10-24T17:37:58.465Z,85.14
2022-10-24T17:39:59.711Z,85.31
2022-10-24T17:42:00.920Z,85.24
2022-10-24T17:44:02.671Z,85.07
2022-10-24T17:46:04.496Z,85.11
2022-10-24T17:48:06.205Z,84.82
2022-10-24T17:50:07.968Z,84.56
2022-10-24T17:52:09.687Z,84.86
2022-10-24T17:54:10.815Z,85.2
2022-10-24T17:58:13.507Z,85.47
2022-10-24T18:00:14.443Z,85.68
2022-10-24T18:02:15.446Z,85.68
2022-10-24T18:04:16.368Z,85.45
2022-10-24T18:06:17.644Z,85.43
2022-10-24T18:08:19.201Z,85.51
2022-10-24T18:10:21.128Z,85.39
2022-10-24T18:12:22.043Z,85.76
2022-10-24T18:14:23.114Z,86.01
2022-10-24T18:16:25.209Z,86
2022-10-24T18:18:25.371Z,86.16
2022-10-24T18:20:27.188Z,86.29
2022-10-24T18:22:28.272Z,86.01
2022-10-24T18:24:29.560Z,85.74
2022-10-24T18:26:31.140Z,85.46
2022-10-24T18:28:32.888Z,85.79
2022-10-24T18:30:33.806Z,85.18
2022-10-24T18:32:35.527Z,85.37
2022-10-24T18:34:36.797Z,85.49
2022-10-24T18:36:37.866Z,85.69
2022-10-24T18:38:39.612Z,85.09
2022-10-24T18:40:41.233Z,85.07
2022-10-24T18:42:42.927Z,85.11
2022-10-24T18:46:45.265Z,85.29
2022-10-24T18:48:46.529Z,84.96
2022-10-24T18:50:47.484Z,84.94
2022-10-24T18:52:48.468Z,84.88
2022-10-24T18:54:49.329Z,84.61
2022-10-24T18:56:50.694Z,85.08
2022-10-24T18:58:51.882Z,84.79
2022-10-24T19:00:53.725Z,84.29
2022-10-24T19:02:54.917Z,84.42
2022-10-24T19:04:56.758Z,84.58
2022-10-24T19:06:58.310Z,84.86
2022-10-24T19:08:59.992Z,85.62
2022-10-24T19:11:01.799Z,85.3
2022-10-24T19:13:03.040Z,85.93
2022-10-24T19:15:04.288Z,86.61
2022-10-24T19:17:06.127Z,86.09
2022-10-24T19:19:07.274Z,86.07
2022-10-24T19:21:08.305Z,86.16
2022-10-24T19:23:09.263Z,86.82
2022-10-24T19:25:10.962Z,87.68
2022-10-24T19:27:11.851Z,88.52
2022-10-24T19:29:13.526Z,88.94
2022-10-24T19:31:15.270Z,89.19
2022-10-24T19:33:16.717Z,89.3
2022-10-24T19:34:00.514Z,89.14
2022-10-24T19:36:02.190Z,89.54
2022-10-24T19:38:03.182Z,89.35
2022-10-24T19:40:04.555Z,90.17
2022-10-24T19:42:05.539Z,90.18
2022-10-24T19:44:06.465Z,89.92
2022-10-24T19:46:18.686Z,89.39
2022-10-24T19:48:09.478Z,89.78
2022-10-24T19:50:11.093Z,88.92
2022-10-24T19:52:12.706Z,88.89
2022-10-24T19:54:14.133Z,89.18
2022-10-24T19:56:15.933Z,89.66
2022-10-24T19:58:17.321Z,89.69
2022-10-24T20:00:19.001Z,89.47
2022-10-24T20:02:20.077Z,89.65
2022-10-24T20:06:22.047Z,89.66
2022-10-24T20:08:23.236Z,89.06
2022-10-24T20:10:25.053Z,88.72
2022-10-24T20:12:26.617Z,89.26
2022-10-24T20:16:29.383Z,89.41
2022-10-24T20:18:31.123Z,89.08
2022-10-24T20:20:32.050Z,88.73
2022-10-24T20:22:32.998Z,88.8
2022-10-24T20:24:34.269Z,88.63
2022-10-24T20:26:35.192Z,88.48
2022-10-24T20:28:36.266Z,88.35
2022-10-24T20:30:37.163Z,88.21
2022-10-24T20:32:38.754Z,88.73
2022-10-24T20:34:39.680Z,88.76
2022-10-24T20:36:40.684Z,88.51
2022-10-24T20:38:41.921Z,88.62
2022-10-24T20:40:42.866Z,88.87
2022-10-24T20:42:44.074Z,89.32
2022-10-24T20:44:45.548Z,89.42
2022-10-24T20:46:46.706Z,89.35
2022-10-24T20:48:47.936Z,89.47
2022-10-24T20:50:49.830Z,89.61
2022-10-24T20:52:50.773Z,90.1
2022-10-24T20:54:52.246Z,89.93
2022-10-24T20:56:54.008Z,89.92
2022-10-24T20:58:55.105Z,89.88
2022-10-24T21:00:56.431Z,89.52
2022-10-24T21:02:57.995Z,89.4
2022-10-24T21:04:59.089Z,89.86
2022-10-24T21:07:00.987Z,90.06
2022-10-24T21:11:04.397Z,90.43
2022-10-24T21:15:06.542Z,90.76
2022-10-24T21:17:07.926Z,90.66
2022-10-24T21:19:09.103Z,90.61
2022-10-24T21:21:10.813Z,90.6
2022-10-24T21:23:12.369Z,90.68
2022-10-24T21:25:13.881Z,90.71
2022-10-24T21:27:14.895Z,90.51
2022-10-24T21:29:32.533Z,90.47
2022-10-24T21:31:17.700Z,89.92
2022-10-24T21:33:18.916Z,89.92
2022-10-24T21:35:20.134Z,89.05
2022-10-24T21:37:21.194Z,89
2022-10-24T21:39:22.688Z,89.07
2022-10-24T21:43:25.221Z,88.88
2022-10-24T21:45:26.492Z,89.1
2022-10-24T21:47:27.990Z,89
2022-10-24T21:49:29.741Z,89.4
2022-10-24T21:51:30.932Z,89.39
2022-10-24T21:53:32.464Z,89.42
2022-10-24T21:57:35.744Z,89.47
2022-10-24T21:59:37.051Z,89.62
2022-10-24T22:01:38.166Z,89.55
2022-10-24T22:03:39.254Z,89.64
2022-10-24T22:05:40.972Z,89.48
2022-10-24T22:07:43.010Z,89.75
2022-10-24T22:09:43.443Z,89.55
2022-10-24T22:13:45.886Z,89.41
2022-10-24T22:15:47.741Z,89.38
2022-10-24T22:17:48.768Z,89.63
2022-10-24T22:19:50.553Z,89.93
2022-10-24T22:21:52.093Z,89.99
2022-10-24T22:23:53.555Z,89.93
2022-10-24T22:25:55.081Z,89.62
2022-10-24T22:27:56.060Z,89.58
2022-10-24T22:29:57.008Z,89.67
2022-10-24T22:31:58.228Z,89.36
2022-10-24T22:33:59.298Z,89.17
2022-10-24T22:36:01.095Z,89.41
2022-10-24T22:38:02.444Z,89.53
2022-10-24T22:40:03.319Z,89
2022-10-24T22:42:04.824Z,88.93
2022-10-24T22:46:07.782Z,89.49
2022-10-24T22:48:09.461Z,89.59
2022-10-24T22:50:10.440Z,89.29
2022-10-24T22:52:11.882Z,89.42
2022-10-24T22:54:13.139Z,89.84
2022-10-24T22:58:16.547Z,90.81
2022-10-24T23:00:17.685Z,91.16
2022-10-24T23:02:19.200Z,91.32
2022-10-24T23:04:20.914Z,91.24
2022-10-24T23:06:21.828Z,91.11
2022-10-24T23:08:23.205Z,91.05
2022-10-24T23:10:24.713Z,90.78
2022-10-24T23:12:26.154Z,90.95
2022-10-24T23:14:27.529Z,90.88
2022-10-24T23:16:28.698Z,91.25
2022-10-24T23:18:30.021Z,91.31
2022-10-24T23:20:31.518Z,91.12
2022-10-24T23:22:33.450Z,90.86
2022-10-24T23:24:34.783Z,90.99
2022-10-24T23:26:36.551Z,90.64
2022-10-24T23:28:38.342Z,90.58
2022-10-24T23:30:40.192Z,90.88
2022-10-24T23:32:41.944Z,91.17
2022-10-24T23:34:43.131Z,90.79
2022-10-24T23:38:45.283Z,90.95
2022-10-24T23:40:46.559Z,90.81
2022-10-24T23:42:48.104Z,90.96
2022-10-24T23:44:49.571Z,90.94
2022-10-24T23:46:50.645Z,90.89
2022-10-24T23:48:52.118Z,90.67
2022-10-24T23:50:53.906Z,90.84
2022-10-24T23:52:55.609Z,91.03
2022-10-24T23:54:57.190Z,91.13
2022-10-24T23:56:58.118Z,91.24
2022-10-24T23:58:59.535Z,91.33
